sensor_id;sensor_type;location;lat;lon;timestamp;P1;durP1;ratioP1;P2;durP2;ratioP2
23376;SDS011;14353;46.070;13.222;2023-05-17T00:00:15;1.20;;;0.95;;
23376;SDS011;14353;46.070;13.222;2023-05-17T00:02:41;1.00;;;0.90;;
23376;SDS011;14353;46.070;13.222;2023-05-17T00:05:07;1.00;;;0.82;;
23376;SDS011;14353;46.070;13.222;2023-05-17T00:07:35;1.42;;;0.90;;
23376;SDS011;14353;46.070;13.222;2023-05-17T00:10:01;0.95;;;0.80;;
23376;SDS011;14353;46.070;13.222;2023-05-17T00:12:27;1.20;;;0.93;;
23376;SDS011;14353;46.070;13.222;2023-05-17T00:14:53;1.33;;;1.10;;
23376;SDS011;14353;46.070;13.222;2023-05-17T00:17:19;1.35;;;0.88;;
23376;SDS011;14353;46.070;13.222;2023-05-17T00:19:45;1.60;;;1.00;;
23376;SDS011;14353;46.070;13.222;2023-05-17T00:22:10;1.10;;;0.98;;
23376;SDS011;14353;46.070;13.222;2023-05-17T00:24:36;1.40;;;0.98;;
23376;SDS011;14353;46.070;13.222;2023-05-17T00:27:02;1.00;;;0.90;;
23376;SDS011;14353;46.070;13.222;2023-05-17T00:29:27;0.85;;;0.80;;
23376;SDS011;14353;46.070;13.222;2023-05-17T00:31:53;1.20;;;0.77;;
23376;SDS011;14353;46.070;13.222;2023-05-17T00:34:19;0.85;;;0.80;;
23376;SDS011;14353;46.070;13.222;2023-05-17T00:36:44;2.05;;;0.90;;
23376;SDS011;14353;46.070;13.222;2023-05-17T00:39:10;0.85;;;0.80;;
23376;SDS011;14353;46.070;13.222;2023-05-17T00:41:36;1.10;;;0.90;;
23376;SDS011;14353;46.070;13.222;2023-05-17T00:44:01;1.38;;;0.75;;
23376;SDS011;14353;46.070;13.222;2023-05-17T00:46:27;0.75;;;0.75;;
23376;SDS011;14353;46.070;13.222;2023-05-17T00:48:53;1.30;;;0.70;;
23376;SDS011;14353;46.070;13.222;2023-05-17T00:51:19;0.90;;;0.80;;
23376;SDS011;14353;46.070;13.222;2023-05-17T00:53:45;0.73;;;0.73;;
23376;SDS011;14353;46.070;13.222;2023-05-17T00:56:12;0.90;;;0.80;;
23376;SDS011;14353;46.070;13.222;2023-05-17T00:58:37;0.90;;;0.80;;
23376;SDS011;14353;46.070;13.222;2023-05-17T01:01:04;1.13;;;0.80;;
23376;SDS011;14353;46.070;13.222;2023-05-17T01:03:31;0.80;;;0.70;;
23376;SDS011;14353;46.070;13.222;2023-05-17T01:05:56;1.17;;;0.90;;
23376;SDS011;14353;46.070;13.222;2023-05-17T01:08:22;1.02;;;0.80;;
23376;SDS011;14353;46.070;13.222;2023-05-17T01:19:18;1.13;;;0.80;;
23376;SDS011;14353;46.070;13.222;2023-05-17T01:27:47;0.75;;;0.70;;
23376;SDS011;14353;46.070;13.222;2023-05-17T01:30:15;1.08;;;0.73;;
23376;SDS011;14353;46.070;13.222;2023-05-17T01:32:43;0.70;;;0.70;;
23376;SDS011;14353;46.070;13.222;2023-05-17T01:35:10;1.35;;;0.82;;
23376;SDS011;14353;46.070;13.222;2023-05-17T01:37:37;0.63;;;0.60;;
23376;SDS011;14353;46.070;13.222;2023-05-17T01:40:03;0.63;;;0.63;;
23376;SDS011;14353;46.070;13.222;2023-05-17T01:42:31;0.80;;;0.80;;
23376;SDS011;14353;46.070;13.222;2023-05-17T01:47:55;0.98;;;0.70;;
23376;SDS011;14353;46.070;13.222;2023-05-17T01:50:28;0.60;;;0.60;;
23376;SDS011;14353;46.070;13.222;2023-05-17T01:52:58;0.90;;;0.65;;
23376;SDS011;14353;46.070;13.222;2023-05-17T01:55:39;1.00;;;0.85;;
23376;SDS011;14353;46.070;13.222;2023-05-17T01:58:07;0.70;;;0.70;;
23376;SDS011;14353;46.070;13.222;2023-05-17T02:00:36;0.93;;;0.70;;
23376;SDS011;14353;46.070;13.222;2023-05-17T02:03:04;0.63;;;0.55;;
23376;SDS011;14353;46.070;13.222;2023-05-17T02:05:30;1.17;;;0.70;;
23376;SDS011;14353;46.070;13.222;2023-05-17T02:07:56;0.88;;;0.70;;
23376;SDS011;14353;46.070;13.222;2023-05-17T02:10:21;0.80;;;0.70;;
23376;SDS011;14353;46.070;13.222;2023-05-17T02:12:47;1.13;;;0.80;;
23376;SDS011;14353;46.070;13.222;2023-05-17T02:15:13;0.60;;;0.60;;
23376;SDS011;14353;46.070;13.222;2023-05-17T02:17:40;0.88;;;0.70;;
23376;SDS011;14353;46.070;13.222;2023-05-17T02:20:06;0.75;;;0.70;;
23376;SDS011;14353;46.070;13.222;2023-05-17T02:22:33;0.60;;;0.60;;
23376;SDS011;14353;46.070;13.222;2023-05-17T02:24:59;0.55;;;0.55;;
23376;SDS011;14353;46.070;13.222;2023-05-17T02:27:25;0.50;;;0.50;;
23376;SDS011;14353;46.070;13.222;2023-05-17T02:29:50;0.70;;;0.70;;
23376;SDS011;14353;46.070;13.222;2023-05-17T02:32:16;0.73;;;0.63;;
23376;SDS011;14353;46.070;13.222;2023-05-17T02:34:42;0.70;;;0.70;;
23376;SDS011;14353;46.070;13.222;2023-05-17T02:37:07;0.88;;;0.70;;
23376;SDS011;14353;46.070;13.222;2023-05-17T02:39:33;0.90;;;0.60;;
23376;SDS011;14353;46.070;13.222;2023-05-17T02:41:59;0.60;;;0.60;;
23376;SDS011;14353;46.070;13.222;2023-05-17T02:44:24;0.75;;;0.75;;
23376;SDS011;14353;46.070;13.222;2023-05-17T02:46:50;0.70;;;0.70;;
23376;SDS011;14353;46.070;13.222;2023-05-17T02:49:16;1.05;;;0.68;;
23376;SDS011;14353;46.070;13.222;2023-05-17T02:51:41;0.70;;;0.70;;
23376;SDS011;14353;46.070;13.222;2023-05-17T02:54:07;0.63;;;0.63;;
23376;SDS011;14353;46.070;13.222;2023-05-17T02:56:33;0.50;;;0.50;;
23376;SDS011;14353;46.070;13.222;2023-05-17T02:58:58;0.50;;;0.50;;
23376;SDS011;14353;46.070;13.222;2023-05-17T03:01:25;0.70;;;0.70;;
23376;SDS011;14353;46.070;13.222;2023-05-17T03:03:51;0.47;;;0.47;;
23376;SDS011;14353;46.070;13.222;2023-05-17T03:06:17;0.65;;;0.65;;
23376;SDS011;14353;46.070;13.222;2023-05-17T03:08:43;0.85;;;0.70;;
23376;SDS011;14353;46.070;13.222;2023-05-17T03:11:09;0.60;;;0.60;;
23376;SDS011;14353;46.070;13.222;2023-05-17T03:13:34;0.65;;;0.50;;
23376;SDS011;14353;46.070;13.222;2023-05-17T03:16:00;0.60;;;0.60;;
23376;SDS011;14353;46.070;13.222;2023-05-17T03:18:26;0.60;;;0.60;;
23376;SDS011;14353;46.070;13.222;2023-05-17T03:20:52;0.90;;;0.68;;
23376;SDS011;14353;46.070;13.222;2023-05-17T03:23:17;1.02;;;0.65;;
23376;SDS011;14353;46.070;13.222;2023-05-17T03:25:43;0.70;;;0.70;;
23376;SDS011;14353;46.070;13.222;2023-05-17T03:28:09;0.80;;;0.60;;
23376;SDS011;14353;46.070;13.222;2023-05-17T03:30:35;0.40;;;0.40;;
23376;SDS011;14353;46.070;13.222;2023-05-17T03:33:00;0.70;;;0.70;;
23376;SDS011;14353;46.070;13.222;2023-05-17T03:35:26;0.60;;;0.60;;
23376;SDS011;14353;46.070;13.222;2023-05-17T03:37:52;0.80;;;0.70;;
23376;SDS011;14353;46.070;13.222;2023-05-17T03:40:17;0.50;;;0.50;;
23376;SDS011;14353;46.070;13.222;2023-05-17T03:42:43;0.68;;;0.60;;
23376;SDS011;14353;46.070;13.222;2023-05-17T03:45:09;0.50;;;0.50;;
23376;SDS011;14353;46.070;13.222;2023-05-17T03:47:35;0.60;;;0.60;;
23376;SDS011;14353;46.070;13.222;2023-05-17T03:50:00;0.45;;;0.45;;
23376;SDS011;14353;46.070;13.222;2023-05-17T03:52:26;0.65;;;0.65;;
23376;SDS011;14353;46.070;13.222;2023-05-17T03:54:52;0.50;;;0.50;;
23376;SDS011;14353;46.070;13.222;2023-05-17T03:57:17;0.40;;;0.40;;
23376;SDS011;14353;46.070;13.222;2023-05-17T03:59:43;0.40;;;0.40;;
23376;SDS011;14353;46.070;13.222;2023-05-17T04:02:09;0.52;;;0.52;;
23376;SDS011;14353;46.070;13.222;2023-05-17T04:04:35;0.80;;;0.50;;
23376;SDS011;14353;46.070;13.222;2023-05-17T04:07:01;0.50;;;0.50;;
23376;SDS011;14353;46.070;13.222;2023-05-17T04:09:27;0.63;;;0.60;;
23376;SDS011;14353;46.070;13.222;2023-05-17T04:11:54;0.50;;;0.50;;
23376;SDS011;14353;46.070;13.222;2023-05-17T04:14:20;0.45;;;0.45;;
23376;SDS011;14353;46.070;13.222;2023-05-17T04:16:46;0.57;;;0.57;;
23376;SDS011;14353;46.070;13.222;2023-05-17T04:19:12;0.50;;;0.50;;
23376;SDS011;14353;46.070;13.222;2023-05-17T04:21:37;0.70;;;0.50;;
23376;SDS011;14353;46.070;13.222;2023-05-17T04:24:03;0.63;;;0.60;;
23376;SDS011;14353;46.070;13.222;2023-05-17T04:26:29;1.25;;;0.68;;
23376;SDS011;14353;46.070;13.222;2023-05-17T04:28:56;0.57;;;0.50;;
23376;SDS011;14353;46.070;13.222;2023-05-17T04:31:21;0.60;;;0.52;;
23376;SDS011;14353;46.070;13.222;2023-05-17T04:33:47;0.60;;;0.60;;
23376;SDS011;14353;46.070;13.222;2023-05-17T04:36:13;0.40;;;0.40;;
23376;SDS011;14353;46.070;13.222;2023-05-17T04:38:38;0.50;;;0.50;;
23376;SDS011;14353;46.070;13.222;2023-05-17T04:41:04;0.57;;;0.50;;
23376;SDS011;14353;46.070;13.222;2023-05-17T04:43:31;0.40;;;0.40;;
23376;SDS011;14353;46.070;13.222;2023-05-17T04:45:57;0.55;;;0.52;;
23376;SDS011;14353;46.070;13.222;2023-05-17T04:48:24;0.55;;;0.50;;
23376;SDS011;14353;46.070;13.222;2023-05-17T04:50:51;0.80;;;0.60;;
23376;SDS011;14353;46.070;13.222;2023-05-17T04:53:18;0.50;;;0.50;;
23376;SDS011;14353;46.070;13.222;2023-05-17T04:55:44;0.60;;;0.60;;
23376;SDS011;14353;46.070;13.222;2023-05-17T04:58:12;0.93;;;0.60;;
23376;SDS011;14353;46.070;13.222;2023-05-17T05:00:37;1.08;;;0.57;;
23376;SDS011;14353;46.070;13.222;2023-05-17T05:03:03;0.98;;;0.60;;
23376;SDS011;14353;46.070;13.222;2023-05-17T05:05:29;0.60;;;0.60;;
23376;SDS011;14353;46.070;13.222;2023-05-17T05:07:55;0.50;;;0.50;;
23376;SDS011;14353;46.070;13.222;2023-05-17T05:10:22;0.55;;;0.55;;
23376;SDS011;14353;46.070;13.222;2023-05-17T05:12:48;0.60;;;0.57;;
23376;SDS011;14353;46.070;13.222;2023-05-17T05:15:13;0.60;;;0.60;;
23376;SDS011;14353;46.070;13.222;2023-05-17T05:17:40;0.50;;;0.50;;
23376;SDS011;14353;46.070;13.222;2023-05-17T05:20:06;0.50;;;0.40;;
23376;SDS011;14353;46.070;13.222;2023-05-17T05:22:32;0.57;;;0.43;;
23376;SDS011;14353;46.070;13.222;2023-05-17T05:24:58;0.50;;;0.40;;
23376;SDS011;14353;46.070;13.222;2023-05-17T05:27:23;0.55;;;0.55;;
23376;SDS011;14353;46.070;13.222;2023-05-17T05:29:49;0.40;;;0.40;;
23376;SDS011;14353;46.070;13.222;2023-05-17T05:32:15;1.58;;;0.60;;
23376;SDS011;14353;46.070;13.222;2023-05-17T05:34:41;0.50;;;0.50;;
23376;SDS011;14353;46.070;13.222;2023-05-17T05:37:06;1.42;;;0.55;;
23376;SDS011;14353;46.070;13.222;2023-05-17T05:39:32;0.32;;;0.32;;
23376;SDS011;14353;46.070;13.222;2023-05-17T05:41:58;1.20;;;0.43;;
23376;SDS011;14353;46.070;13.222;2023-05-17T05:44:24;0.50;;;0.50;;
23376;SDS011;14353;46.070;13.222;2023-05-17T05:46:49;1.73;;;0.60;;
23376;SDS011;14353;46.070;13.222;2023-05-17T05:49:15;2.15;;;0.60;;
23376;SDS011;14353;46.070;13.222;2023-05-17T05:51:41;1.13;;;0.50;;
23376;SDS011;14353;46.070;13.222;2023-05-17T05:54:06;1.20;;;0.47;;
23376;SDS011;14353;46.070;13.222;2023-05-17T05:56:32;1.20;;;0.60;;
23376;SDS011;14353;46.070;13.222;2023-05-17T05:58:58;0.75;;;0.52;;
23376;SDS011;14353;46.070;13.222;2023-05-17T06:01:24;1.50;;;0.55;;
23376;SDS011;14353;46.070;13.222;2023-05-17T06:03:50;0.70;;;0.63;;
23376;SDS011;14353;46.070;13.222;2023-05-17T06:06:15;5.05;;;0.80;;
23376;SDS011;14353;46.070;13.222;2023-05-17T06:08:44;2.28;;;1.13;;
23376;SDS011;14353;46.070;13.222;2023-05-17T06:11:13;2.78;;;1.10;;
23376;SDS011;14353;46.070;13.222;2023-05-17T06:13:43;4.45;;;0.95;;
23376;SDS011;14353;46.070;13.222;2023-05-17T06:16:15;4.65;;;1.10;;
23376;SDS011;14353;46.070;13.222;2023-05-17T06:18:49;2.15;;;1.15;;
23376;SDS011;14353;46.070;13.222;2023-05-17T06:23:51;4.90;;;1.10;;
23376;SDS011;14353;46.070;13.222;2023-05-17T06:26:19;6.20;;;1.30;;
23376;SDS011;14353;46.070;13.222;2023-05-17T06:28:45;7.03;;;1.17;;
23376;SDS011;14353;46.070;13.222;2023-05-17T06:31:11;7.18;;;1.33;;
23376;SDS011;14353;46.070;13.222;2023-05-17T06:33:36;7.20;;;1.20;;
23376;SDS011;14353;46.070;13.222;2023-05-17T06:36:02;6.05;;;1.08;;
23376;SDS011;14353;46.070;13.222;2023-05-17T06:38:28;6.65;;;1.30;;
23376;SDS011;14353;46.070;13.222;2023-05-17T06:40:54;3.92;;;1.10;;
23376;SDS011;14353;46.070;13.222;2023-05-17T06:43:21;8.40;;;1.27;;
23376;SDS011;14353;46.070;13.222;2023-05-17T06:45:47;9.30;;;1.20;;
23376;SDS011;14353;46.070;13.222;2023-05-17T06:48:12;4.03;;;1.20;;
23376;SDS011;14353;46.070;13.222;2023-05-17T06:50:38;3.80;;;1.08;;
23376;SDS011;14353;46.070;13.222;2023-05-17T06:53:04;6.70;;;2.67;;
23376;SDS011;14353;46.070;13.222;2023-05-17T06:55:30;5.32;;;2.28;;
23376;SDS011;14353;46.070;13.222;2023-05-17T06:57:55;3.90;;;1.60;;
23376;SDS011;14353;46.070;13.222;2023-05-17T07:00:21;3.47;;;1.95;;
23376;SDS011;14353;46.070;13.222;2023-05-17T07:02:48;6.97;;;1.70;;
23376;SDS011;14353;46.070;13.222;2023-05-17T07:05:14;3.95;;;1.58;;
23376;SDS011;14353;46.070;13.222;2023-05-17T07:07:40;3.58;;;1.10;;
23376;SDS011;14353;46.070;13.222;2023-05-17T07:10:05;8.23;;;1.30;;
23376;SDS011;14353;46.070;13.222;2023-05-17T07:12:32;2.67;;;1.10;;
23376;SDS011;14353;46.070;13.222;2023-05-17T07:14:57;3.53;;;1.10;;
23376;SDS011;14353;46.070;13.222;2023-05-17T07:17:23;2.42;;;1.17;;
23376;SDS011;14353;46.070;13.222;2023-05-17T07:19:49;4.72;;;1.30;;
23376;SDS011;14353;46.070;13.222;2023-05-17T07:22:16;7.43;;;1.50;;
23376;SDS011;14353;46.070;13.222;2023-05-17T07:24:44;15.40;;;1.80;;
23376;SDS011;14353;46.070;13.222;2023-05-17T07:27:11;8.13;;;1.60;;
23376;SDS011;14353;46.070;13.222;2023-05-17T07:29:36;5.35;;;1.40;;
23376;SDS011;14353;46.070;13.222;2023-05-17T07:32:02;6.70;;;1.77;;
23376;SDS011;14353;46.070;13.222;2023-05-17T07:34:31;6.15;;;1.40;;
23376;SDS011;14353;46.070;13.222;2023-05-17T07:36:57;6.40;;;1.20;;
23376;SDS011;14353;46.070;13.222;2023-05-17T07:39:22;3.47;;;1.20;;
23376;SDS011;14353;46.070;13.222;2023-05-17T07:41:48;6.88;;;1.65;;
23376;SDS011;14353;46.070;13.222;2023-05-17T07:44:14;8.40;;;1.58;;
23376;SDS011;14353;46.070;13.222;2023-05-17T07:46:40;7.70;;;1.58;;
23376;SDS011;14353;46.070;13.222;2023-05-17T07:49:05;5.72;;;1.38;;
23376;SDS011;14353;46.070;13.222;2023-05-17T07:51:31;4.38;;;1.30;;
23376;SDS011;14353;46.070;13.222;2023-05-17T07:53:58;2.63;;;1.30;;
23376;SDS011;14353;46.070;13.222;2023-05-17T07:56:27;2.35;;;1.00;;
23376;SDS011;14353;46.070;13.222;2023-05-17T07:58:53;3.47;;;1.30;;
23376;SDS011;14353;46.070;13.222;2023-05-17T08:01:19;6.45;;;1.05;;
23376;SDS011;14353;46.070;13.222;2023-05-17T08:03:45;3.15;;;1.33;;
23376;SDS011;14353;46.070;13.222;2023-05-17T08:06:15;2.47;;;1.00;;
23376;SDS011;14353;46.070;13.222;2023-05-17T08:08:41;3.75;;;1.25;;
23376;SDS011;14353;46.070;13.222;2023-05-17T08:11:08;4.90;;;1.02;;
23376;SDS011;14353;46.070;13.222;2023-05-17T08:13:34;3.83;;;0.90;;
23376;SDS011;14353;46.070;13.222;2023-05-17T08:16:00;2.75;;;0.80;;
23376;SDS011;14353;46.070;13.222;2023-05-17T08:18:31;3.88;;;1.30;;
23376;SDS011;14353;46.070;13.222;2023-05-17T08:20:57;1.33;;;0.80;;
23376;SDS011;14353;46.070;13.222;2023-05-17T08:23:23;1.40;;;0.80;;
23376;SDS011;14353;46.070;13.222;2023-05-17T08:25:49;2.05;;;0.80;;
23376;SDS011;14353;46.070;13.222;2023-05-17T08:28:15;2.90;;;1.00;;
23376;SDS011;14353;46.070;13.222;2023-05-17T08:30:41;6.50;;;1.17;;
23376;SDS011;14353;46.070;13.222;2023-05-17T08:33:10;8.07;;;1.45;;
23376;SDS011;14353;46.070;13.222;2023-05-17T08:35:36;4.25;;;0.98;;
23376;SDS011;14353;46.070;13.222;2023-05-17T08:38:01;1.20;;;0.60;;
23376;SDS011;14353;46.070;13.222;2023-05-17T08:40:27;0.85;;;0.50;;
23376;SDS011;14353;46.070;13.222;2023-05-17T08:42:53;1.42;;;0.70;;
23376;SDS011;14353;46.070;13.222;2023-05-17T08:45:19;0.90;;;0.50;;
23376;SDS011;14353;46.070;13.222;2023-05-17T08:47:46;1.40;;;0.60;;
23376;SDS011;14353;46.070;13.222;2023-05-17T08:50:13;6.13;;;0.98;;
23376;SDS011;14353;46.070;13.222;2023-05-17T08:52:39;3.03;;;0.88;;
23376;SDS011;14353;46.070;13.222;2023-05-17T08:55:08;1.13;;;0.82;;
23376;SDS011;14353;46.070;13.222;2023-05-17T08:57:35;1.40;;;0.80;;
23376;SDS011;14353;46.070;13.222;2023-05-17T09:00:05;4.32;;;1.00;;
23376;SDS011;14353;46.070;13.222;2023-05-17T09:02:37;3.80;;;0.90;;
23376;SDS011;14353;46.070;13.222;2023-05-17T09:05:07;3.38;;;0.90;;
23376;SDS011;14353;46.070;13.222;2023-05-17T09:07:34;3.88;;;0.95;;
23376;SDS011;14353;46.070;13.222;2023-05-17T09:10:00;2.58;;;1.20;;
23376;SDS011;14353;46.070;13.222;2023-05-17T09:12:29;1.83;;;0.70;;
23376;SDS011;14353;46.070;13.222;2023-05-17T09:17:53;0.88;;;0.60;;
23376;SDS011;14353;46.070;13.222;2023-05-17T09:20:23;3.50;;;0.90;;
23376;SDS011;14353;46.070;13.222;2023-05-17T09:22:58;10.25;;;1.30;;
23376;SDS011;14353;46.070;13.222;2023-05-17T09:25:25;2.97;;;0.80;;
23376;SDS011;14353;46.070;13.222;2023-05-17T09:27:52;4.00;;;1.00;;
23376;SDS011;14353;46.070;13.222;2023-05-17T09:30:26;6.55;;;1.10;;
23376;SDS011;14353;46.070;13.222;2023-05-17T09:32:56;7.00;;;0.82;;
23376;SDS011;14353;46.070;13.222;2023-05-17T09:35:30;10.63;;;1.00;;
23376;SDS011;14353;46.070;13.222;2023-05-17T09:38:03;5.95;;;0.80;;
23376;SDS011;14353;46.070;13.222;2023-05-17T09:40:29;3.58;;;0.90;;
23376;SDS011;14353;46.070;13.222;2023-05-17T09:42:55;4.82;;;1.17;;
23376;SDS011;14353;46.070;13.222;2023-05-17T09:45:22;1.67;;;0.90;;
23376;SDS011;14353;46.070;13.222;2023-05-17T09:47:48;3.65;;;0.70;;
23376;SDS011;14353;46.070;13.222;2023-05-17T09:50:18;4.05;;;0.90;;
23376;SDS011;14353;46.070;13.222;2023-05-17T09:52:44;5.97;;;1.27;;
23376;SDS011;14353;46.070;13.222;2023-05-17T09:55:10;3.15;;;0.70;;
23376;SDS011;14353;46.070;13.222;2023-05-17T09:57:37;5.68;;;1.17;;
23376;SDS011;14353;46.070;13.222;2023-05-17T10:00:04;3.28;;;1.00;;
23376;SDS011;14353;46.070;13.222;2023-05-17T10:02:35;5.55;;;0.80;;
23376;SDS011;14353;46.070;13.222;2023-05-17T10:05:02;11.35;;;1.02;;
23376;SDS011;14353;46.070;13.222;2023-05-17T10:07:29;3.28;;;0.80;;
23376;SDS011;14353;46.070;13.222;2023-05-17T10:09:56;9.20;;;1.55;;
23376;SDS011;14353;46.070;13.222;2023-05-17T10:12:22;15.15;;;1.17;;
23376;SDS011;14353;46.070;13.222;2023-05-17T10:14:52;10.98;;;1.10;;
23376;SDS011;14353;46.070;13.222;2023-05-17T10:17:21;8.20;;;1.30;;
23376;SDS011;14353;46.070;13.222;2023-05-17T10:19:50;8.40;;;1.17;;
23376;SDS011;14353;46.070;13.222;2023-05-17T10:22:17;10.50;;;1.10;;
23376;SDS011;14353;46.070;13.222;2023-05-17T10:24:45;7.80;;;1.00;;
23376;SDS011;14353;46.070;13.222;2023-05-17T10:27:13;4.82;;;1.00;;
23376;SDS011;14353;46.070;13.222;2023-05-17T10:29:40;6.30;;;1.15;;
23376;SDS011;14353;46.070;13.222;2023-05-17T10:32:07;9.27;;;1.42;;
23376;SDS011;14353;46.070;13.222;2023-05-17T10:34:35;7.32;;;1.27;;
23376;SDS011;14353;46.070;13.222;2023-05-17T10:37:02;11.95;;;1.33;;
23376;SDS011;14353;46.070;13.222;2023-05-17T10:39:28;8.32;;;1.38;;
23376;SDS011;14353;46.070;13.222;2023-05-17T10:41:58;12.13;;;1.50;;
23376;SDS011;14353;46.070;13.222;2023-05-17T10:44:26;8.68;;;1.25;;
23376;SDS011;14353;46.070;13.222;2023-05-17T10:46:54;6.80;;;1.20;;
23376;SDS011;14353;46.070;13.222;2023-05-17T10:49:25;6.05;;;1.23;;
23376;SDS011;14353;46.070;13.222;2023-05-17T10:51:58;6.47;;;1.52;;
23376;SDS011;14353;46.070;13.222;2023-05-17T10:54:35;7.97;;;1.27;;
23376;SDS011;14353;46.070;13.222;2023-05-17T10:57:05;6.72;;;1.15;;
23376;SDS011;14353;46.070;13.222;2023-05-17T10:59:32;4.97;;;1.27;;
23376;SDS011;14353;46.070;13.222;2023-05-17T11:04:32;7.05;;;1.35;;
23376;SDS011;14353;46.070;13.222;2023-05-17T11:12:45;23.90;;;2.03;;
23376;SDS011;14353;46.070;13.222;2023-05-17T11:15:22;10.73;;;1.30;;
23376;SDS011;14353;46.070;13.222;2023-05-17T11:17:50;4.35;;;0.98;;
23376;SDS011;14353;46.070;13.222;2023-05-17T11:22:54;4.97;;;0.98;;
23376;SDS011;14353;46.070;13.222;2023-05-17T11:25:32;7.47;;;1.10;;
23376;SDS011;14353;46.070;13.222;2023-05-17T11:28:17;9.20;;;1.52;;
23376;SDS011;14353;46.070;13.222;2023-05-17T11:30:44;5.13;;;1.02;;
23376;SDS011;14353;46.070;13.222;2023-05-17T11:33:15;5.07;;;1.00;;
23376;SDS011;14353;46.070;13.222;2023-05-17T11:35:41;6.47;;;1.27;;
23376;SDS011;14353;46.070;13.222;2023-05-17T11:40:48;8.90;;;1.30;;
23376;SDS011;14353;46.070;13.222;2023-05-17T11:43:21;5.95;;;1.30;;
23376;SDS011;14353;46.070;13.222;2023-05-17T11:45:52;3.28;;;1.27;;
23376;SDS011;14353;46.070;13.222;2023-05-17T11:48:21;5.32;;;1.60;;
23376;SDS011;14353;46.070;13.222;2023-05-17T11:50:49;6.40;;;1.65;;
23376;SDS011;14353;46.070;13.222;2023-05-17T11:53:16;8.10;;;1.27;;
23376;SDS011;14353;46.070;13.222;2023-05-17T11:55:43;7.97;;;1.20;;
23376;SDS011;14353;46.070;13.222;2023-05-17T11:58:14;6.90;;;1.40;;
23376;SDS011;14353;46.070;13.222;2023-05-17T12:00:41;5.40;;;1.15;;
23376;SDS011;14353;46.070;13.222;2023-05-17T12:05:40;6.97;;;1.35;;
23376;SDS011;14353;46.070;13.222;2023-05-17T12:08:06;8.13;;;1.60;;
23376;SDS011;14353;46.070;13.222;2023-05-17T12:10:32;6.47;;;1.48;;
23376;SDS011;14353;46.070;13.222;2023-05-17T12:12:58;6.72;;;1.63;;
23376;SDS011;14353;46.070;13.222;2023-05-17T12:15:44;7.93;;;1.45;;
23376;SDS011;14353;46.070;13.222;2023-05-17T12:18:15;5.68;;;1.20;;
23376;SDS011;14353;46.070;13.222;2023-05-17T12:20:54;3.47;;;1.40;;
23376;SDS011;14353;46.070;13.222;2023-05-17T12:23:30;6.63;;;1.58;;
23376;SDS011;14353;46.070;13.222;2023-05-17T12:26:04;4.80;;;1.15;;
23376;SDS011;14353;46.070;13.222;2023-05-17T12:28:39;2.65;;;1.20;;
23376;SDS011;14353;46.070;13.222;2023-05-17T12:31:08;6.88;;;1.50;;
23376;SDS011;14353;46.070;13.222;2023-05-17T12:33:40;5.03;;;1.13;;
23376;SDS011;14353;46.070;13.222;2023-05-17T12:36:07;4.55;;;1.40;;
23376;SDS011;14353;46.070;13.222;2023-05-17T12:38:34;5.32;;;1.38;;
23376;SDS011;14353;46.070;13.222;2023-05-17T12:41:02;5.18;;;1.35;;
23376;SDS011;14353;46.070;13.222;2023-05-17T12:43:29;3.15;;;1.27;;
23376;SDS011;14353;46.070;13.222;2023-05-17T12:46:01;7.85;;;1.25;;
23376;SDS011;14353;46.070;13.222;2023-05-17T12:48:36;3.42;;;1.48;;
23376;SDS011;14353;46.070;13.222;2023-05-17T12:51:09;4.22;;;1.30;;
23376;SDS011;14353;46.070;13.222;2023-05-17T12:53:37;4.35;;;1.20;;
23376;SDS011;14353;46.070;13.222;2023-05-17T12:56:04;4.70;;;1.33;;
23376;SDS011;14353;46.070;13.222;2023-05-17T12:58:30;5.13;;;1.50;;
23376;SDS011;14353;46.070;13.222;2023-05-17T13:01:00;2.72;;;1.20;;
23376;SDS011;14353;46.070;13.222;2023-05-17T13:03:27;15.95;;;2.10;;
23376;SDS011;14353;46.070;13.222;2023-05-17T13:05:57;8.13;;;1.70;;
23376;SDS011;14353;46.070;13.222;2023-05-17T13:08:30;5.18;;;1.48;;
23376;SDS011;14353;46.070;13.222;2023-05-17T13:11:07;7.28;;;1.90;;
23376;SDS011;14353;46.070;13.222;2023-05-17T13:13:37;6.30;;;1.80;;
23376;SDS011;14353;46.070;13.222;2023-05-17T13:16:03;7.30;;;1.60;;
23376;SDS011;14353;46.070;13.222;2023-05-17T13:18:30;6.40;;;1.50;;
23376;SDS011;14353;46.070;13.222;2023-05-17T13:21:10;11.25;;;1.80;;
23376;SDS011;14353;46.070;13.222;2023-05-17T13:23:40;6.78;;;2.40;;
23376;SDS011;14353;46.070;13.222;2023-05-17T13:26:10;8.43;;;2.97;;
23376;SDS011;14353;46.070;13.222;2023-05-17T13:28:37;11.98;;;3.20;;
23376;SDS011;14353;46.070;13.222;2023-05-17T13:31:03;8.95;;;3.70;;
23376;SDS011;14353;46.070;13.222;2023-05-17T13:33:28;8.55;;;3.88;;
23376;SDS011;14353;46.070;13.222;2023-05-17T13:35:55;7.05;;;3.92;;
23376;SDS011;14353;46.070;13.222;2023-05-17T13:38:21;6.97;;;3.47;;
23376;SDS011;14353;46.070;13.222;2023-05-17T13:40:47;8.50;;;3.35;;
23376;SDS011;14353;46.070;13.222;2023-05-17T13:43:13;10.20;;;3.40;;
23376;SDS011;14353;46.070;13.222;2023-05-17T13:45:39;5.75;;;3.10;;
23376;SDS011;14353;46.070;13.222;2023-05-17T13:48:05;6.63;;;3.20;;
23376;SDS011;14353;46.070;13.222;2023-05-17T13:50:31;7.85;;;3.53;;
23376;SDS011;14353;46.070;13.222;2023-05-17T13:52:57;8.05;;;3.40;;
23376;SDS011;14353;46.070;13.222;2023-05-17T13:55:22;6.95;;;3.08;;
23376;SDS011;14353;46.070;13.222;2023-05-17T13:57:49;5.85;;;3.13;;
23376;SDS011;14353;46.070;13.222;2023-05-17T14:00:14;6.13;;;3.05;;
23376;SDS011;14353;46.070;13.222;2023-05-17T14:02:40;6.80;;;3.05;;
23376;SDS011;14353;46.070;13.222;2023-05-17T14:05:06;7.68;;;3.25;;
23376;SDS011;14353;46.070;13.222;2023-05-17T14:07:34;6.70;;;3.47;;
23376;SDS011;14353;46.070;13.222;2023-05-17T14:10:05;6.13;;;2.95;;
23376;SDS011;14353;46.070;13.222;2023-05-17T14:12:32;4.57;;;2.70;;
23376;SDS011;14353;46.070;13.222;2023-05-17T14:15:00;6.85;;;3.17;;
23376;SDS011;14353;46.070;13.222;2023-05-17T14:17:25;5.85;;;3.20;;
23376;SDS011;14353;46.070;13.222;2023-05-17T14:19:51;5.47;;;3.17;;
23376;SDS011;14353;46.070;13.222;2023-05-17T14:22:17;7.60;;;2.67;;
23376;SDS011;14353;46.070;13.222;2023-05-17T14:24:42;6.47;;;2.88;;
23376;SDS011;14353;46.070;13.222;2023-05-17T14:27:08;7.22;;;2.97;;
23376;SDS011;14353;46.070;13.222;2023-05-17T14:29:34;6.53;;;2.70;;
23376;SDS011;14353;46.070;13.222;2023-05-17T14:31:59;6.60;;;2.90;;
23376;SDS011;14353;46.070;13.222;2023-05-17T14:34:25;7.10;;;2.50;;
23376;SDS011;14353;46.070;13.222;2023-05-17T14:36:51;4.90;;;2.78;;
23376;SDS011;14353;46.070;13.222;2023-05-17T14:39:18;4.85;;;2.78;;
23376;SDS011;14353;46.070;13.222;2023-05-17T14:41:44;5.78;;;2.75;;
23376;SDS011;14353;46.070;13.222;2023-05-17T14:44:10;5.25;;;2.42;;
23376;SDS011;14353;46.070;13.222;2023-05-17T14:46:36;7.55;;;2.40;;
23376;SDS011;14353;46.070;13.222;2023-05-17T14:49:01;4.15;;;2.20;;
23376;SDS011;14353;46.070;13.222;2023-05-17T14:51:27;3.80;;;2.50;;
23376;SDS011;14353;46.070;13.222;2023-05-17T14:53:53;4.00;;;2.35;;
23376;SDS011;14353;46.070;13.222;2023-05-17T14:56:19;3.58;;;2.25;;
23376;SDS011;14353;46.070;13.222;2023-05-17T14:58:46;5.65;;;2.33;;
23376;SDS011;14353;46.070;13.222;2023-05-17T15:01:11;5.65;;;2.50;;
23376;SDS011;14353;46.070;13.222;2023-05-17T15:03:37;3.95;;;2.10;;
23376;SDS011;14353;46.070;13.222;2023-05-17T15:06:03;5.68;;;2.55;;
23376;SDS011;14353;46.070;13.222;2023-05-17T15:08:30;3.33;;;2.20;;
23376;SDS011;14353;46.070;13.222;2023-05-17T15:10:55;3.00;;;2.22;;